Denson Spring, Texas
Current Conditions -  °F | °C
As of 8:15 PM on Wednesday 17 Dec 2014 (Local Time) from KDKR Reporting Station
Overcast Overcast  
Wind Chill: 52°   Ceiling: 2100
Heat Index: 52°   Visibility: NA
Dew Point: 48°   Wind: 5mph
Humidity: 88%   Direction: 70°ENE
Pressure: 30.15"   Gusts: NA
Location:  31.4982°N, 95.4177°W
Report Text: KDKR 180215Z AUTO 07004KT OVC021 11/09 A3015 RMK AO2
Loading
Personal Weather Stations






























Interactive Weather Map New forecast layout! Learn more

10-Day Weather Forecast

Advertisements
Track Severe Weather on mobile